Time;durP1;ratioP1;P1;durP2;ratioP2;P2;SDS_P1;SDS_P2;PMS_P1;PMS_P2;Temp;Humidity;BMP_temperature;BMP_pressure;BME280_temperature;BME280_humidity;BME280_pressure;Samples;Min_cycle;Max_cycle;Signal;HPM_P1;HPM_P2
2022/03/24 00:00:13;;;;;;;29.15;15.48;;;;;;;4.21;80.81;102123.94;5282311;28;20024;-78
2022/03/24 00:02:44;;;;;;;28.45;16.20;;;;;;;4.10;82.15;102125.50;5263855;28;20049;-78
2022/03/24 00:05:14;;;;;;;28.40;14.77;;;;;;;4.09;82.60;102119.47;5269050;28;20499;-78
2022/03/24 00:07:45;;;;;;;32.03;16.13;;;;;;;4.31;80.03;102118.91;5284204;28;20033;-78
2022/03/24 00:10:15;;;;;;;30.83;15.93;;;;;;;4.23;79.99;102117.94;5286464;28;20386;-78
2022/03/24 00:12:46;;;;;;;31.27;15.77;;;;;;;3.97;81.45;102114.09;5284133;28;20049;-77
2022/03/24 00:15:16;;;;;;;31.45;15.82;;;;;;;4.08;80.94;102122.00;5286927;28;20477;-78
2022/03/24 00:17:46;;;;;;;29.60;16.00;;;;;;;4.16;79.46;102113.50;5286966;28;20427;-78
2022/03/24 00:20:17;;;;;;;29.52;16.55;;;;;;;3.81;82.30;102117.28;5286616;28;20024;-78
2022/03/24 00:22:47;;;;;;;30.08;15.68;;;;;;;3.66;82.19;102116.16;5286733;28;20055;-77
2022/03/24 00:25:19;;;;;;;31.15;16.13;;;;;;;3.74;81.44;102118.03;5287003;28;20030;-78
2022/03/24 00:27:49;;;;;;;29.23;16.20;;;;;;;3.68;82.81;102117.06;5268249;28;20421;-77
2022/03/24 00:30:20;;;;;;;31.88;16.80;;;;;;;3.64;82.68;102116.13;5286735;28;20042;-77
2022/03/24 00:32:50;;;;;;;35.83;17.73;;;;;;;3.67;82.37;102116.19;5267783;28;20023;-78
2022/03/24 00:35:21;;;;;;;30.95;17.13;;;;;;;3.67;82.04;102120.47;5268469;28;20130;-77
2022/03/24 00:37:51;;;;;;;30.42;16.30;;;;;;;3.76;80.71;102118.91;5286052;28;20024;-78
2022/03/24 00:40:22;;;;;;;29.77;16.17;;;;;;;3.78;80.17;102117.22;5286461;28;20473;-77
2022/03/24 00:42:52;;;;;;;31.42;16.52;;;;;;;3.73;80.78;102123.16;5285687;28;20027;-77
2022/03/24 00:45:22;;;;;;;29.30;16.70;;;;;;;3.69;81.23;102111.91;5286736;28;20058;-78
2022/03/24 00:47:53;;;;;;;30.20;15.85;;;;;;;3.55;82.63;102114.25;5286476;28;20027;-78
2022/03/24 00:50:23;;;;;;;31.50;16.50;;;;;;;3.36;83.37;102115.63;5285781;28;20055;-78
2022/03/24 00:52:54;;;;;;;30.60;15.82;;;;;;;3.50;83.00;102115.88;5265478;28;20020;-78
2022/03/24 00:55:25;;;;;;;33.15;16.08;;;;;;;3.48;81.77;102104.63;5286116;28;20040;-78
2022/03/24 00:57:55;;;;;;;29.45;16.05;;;;;;;3.47;80.82;102103.78;5286114;28;20031;-78
2022/03/24 01:00:27;;;;;;;25.25;15.27;;;;;;;3.40;81.78;102106.22;5285854;28;20481;-77
2022/03/24 01:02:58;;;;;;;32.17;15.98;;;;;;;3.04;83.73;102102.97;5283803;28;20032;-77
2022/03/24 01:05:28;;;;;;;30.13;16.70;;;;;;;3.35;82.63;102100.09;5286584;28;20030;-77
2022/03/24 01:07:58;;;;;;;30.98;16.10;;;;;;;3.36;82.77;102101.84;5285454;28;20045;-77
2022/03/24 01:10:29;;;;;;;31.50;16.58;;;;;;;3.36;83.11;102102.69;5285968;28;20027;-77
2022/03/24 01:12:59;;;;;;;30.90;16.00;;;;;;;3.53;82.69;102103.88;5283508;28;20131;-77
2022/03/24 01:15:30;;;;;;;31.42;16.95;;;;;;;3.51;79.64;102095.22;5286106;28;20020;-77
2022/03/24 01:18:01;;;;;;;28.38;15.93;;;;;;;3.43;82.36;102095.94;5285795;28;20030;-78
2022/03/24 01:20:31;;;;;;;33.38;15.95;;;;;;;3.09;82.31;102101.31;5285773;28;20058;-77
2022/03/24 01:23:02;;;;;;;30.15;17.00;;;;;;;3.25;82.93;102095.59;5267236;28;20416;-78
2022/03/24 01:25:32;;;;;;;35.15;17.35;;;;;;;3.24;81.53;102089.59;5285845;28;20024;-77
2022/03/24 01:28:03;;;;;;;29.90;16.48;;;;;;;3.01;83.10;102093.44;5283337;28;20032;-77
2022/03/24 01:30:34;;;;;;;32.58;16.40;;;;;;;2.79;84.53;102098.16;5285898;28;20028;-78
2022/03/24 01:33:05;;;;;;;31.58;16.40;;;;;;;2.82;84.35;102093.91;5277604;28;20493;-77
2022/03/24 01:35:35;;;;;;;30.20;16.45;;;;;;;2.92;84.10;102092.38;5278146;28;20115;-79
2022/03/24 01:38:05;;;;;;;28.95;15.82;;;;;;;3.07;83.98;102090.09;5284009;28;20134;-77
2022/03/24 01:40:36;;;;;;;28.27;16.10;;;;;;;2.88;84.00;102098.34;5284577;28;20450;-78
2022/03/24 01:43:07;;;;;;;30.15;16.45;;;;;;;2.83;85.05;102089.66;5284896;28;20023;-78
2022/03/24 01:45:38;;;;;;;34.17;16.48;;;;;;;2.78;84.92;102092.13;5267521;28;20366;-78
2022/03/24 01:48:08;;;;;;;29.77;15.73;;;;;;;2.58;85.50;102089.97;5285084;28;20048;-78
2022/03/24 01:50:40;;;;;;;32.00;15.75;;;;;;;2.71;86.16;102091.97;5284596;28;20033;-78
2022/03/24 01:53:12;;;;;;;30.38;16.20;;;;;;;2.71;85.01;102091.97;5284490;28;20489;-77
2022/03/24 01:55:44;;;;;;;32.92;15.85;;;;;;;2.71;85.96;102086.81;5266923;28;20083;-78
2022/03/24 01:58:14;;;;;;;29.58;15.63;;;;;;;2.87;85.53;102081.13;5284855;28;20038;-77
2022/03/24 02:00:44;;;;;;;31.55;16.45;;;;;;;2.91;84.47;102082.91;5284561;28;20118;-77
2022/03/24 02:03:16;;;;;;;29.75;16.17;;;;;;;2.85;86.17;102077.63;5264074;28;20081;-77
2022/03/24 02:05:46;;;;;;;30.10;15.75;;;;;;;2.92;85.04;102084.66;5281486;28;20028;-77
2022/03/24 02:08:16;;;;;;;32.38;16.42;;;;;;;3.15;83.25;102075.59;5285046;28;20354;-77
2022/03/24 02:10:46;;;;;;;31.27;16.88;;;;;;;2.86;84.88;102081.97;5265419;28;20031;-77
2022/03/24 02:13:17;;;;;;;27.25;15.82;;;;;;;2.72;85.75;102075.66;5284657;28;20035;-77
2022/03/24 02:15:49;;;;;;;34.13;16.85;;;;;;;2.73;85.96;102079.97;5284994;28;20473;-77
2022/03/24 02:18:19;;;;;;;27.77;15.50;;;;;;;2.69;86.15;102076.44;5266835;28;20088;-77
2022/03/24 02:20:51;;;;;;;33.00;15.48;;;;;;;2.87;84.21;102070.78;5266310;28;20024;-77
2022/03/24 02:23:21;;;;;;;30.55;16.13;;;;;;;2.84;83.21;102070.72;5283723;28;20031;-77
2022/03/24 02:25:54;;;;;;;32.58;16.10;;;;;;;2.84;83.93;102066.44;5284477;28;20023;-77
2022/03/24 02:28:24;;;;;;;30.02;15.77;;;;;;;2.55;85.45;102066.69;5284484;28;20525;-77
2022/03/24 02:30:54;;;;;;;27.95;16.05;;;;;;;2.35;86.10;102070.56;5284076;28;20173;-77
2022/03/24 02:33:25;;;;;;;30.58;16.40;;;;;;;2.22;87.17;102072.03;5263844;28;20100;-79
2022/03/24 02:35:56;;;;;;;29.95;15.40;;;;;;;2.00;88.79;102074.09;5284007;28;20070;-78
2022/03/24 02:38:26;;;;;;;31.67;16.38;;;;;;;1.97;89.58;102063.72;5283484;28;20023;-77
2022/03/24 02:40:57;;;;;;;28.50;15.57;;;;;;;2.02;89.70;102068.09;5283756;28;20032;-77
2022/03/24 02:43:27;;;;;;;32.38;15.50;;;;;;;2.11;90.07;102072.59;5281879;28;20434;-78
2022/03/24 02:45:57;;;;;;;27.70;15.30;;;;;;;2.09;90.57;102071.69;5283920;28;20030;-79
2022/03/24 02:48:28;;;;;;;35.95;16.23;;;;;;;2.22;89.57;102065.97;5265715;28;20408;-78
2022/03/24 02:51:01;;;;;;;27.40;15.02;;;;;;;2.16;89.17;102077.03;5284273;28;20190;-78
2022/03/24 02:53:31;;;;;;;29.67;16.48;;;;;;;2.59;86.78;102071.06;5263025;28;20033;-79
2022/03/24 02:56:02;;;;;;;25.48;13.88;;;;;;;2.59;85.04;102069.38;5283880;28;20294;-78
2022/03/24 02:58:32;;;;;;;25.10;13.88;;;;;;;2.27;85.24;102066.94;5283492;28;20042;-77
2022/03/24 03:01:03;;;;;;;23.40;13.02;;;;;;;2.19;86.90;102063.34;5283080;28;20031;-77
2022/03/24 03:03:33;;;;;;;26.58;13.82;;;;;;;1.79;89.57;102068.44;5283471;28;20423;-77
2022/03/24 03:06:04;;;;;;;24.65;13.82;;;;;;;1.73;90.37;102077.72;5283891;28;20536;-79
2022/03/24 03:08:34;;;;;;;24.80;13.60;;;;;;;1.66;91.59;102068.97;5282485;28;20157;-78
2022/03/24 03:11:04;;;;;;;27.75;14.65;;;;;;;1.68;91.38;102072.47;5282196;28;20042;-78
2022/03/24 03:13:34;;;;;;;25.17;14.05;;;;;;;1.71;91.91;102072.53;5283331;28;20047;-77
2022/03/24 03:16:05;;;;;;;26.90;15.77;;;;;;;1.70;93.68;102073.38;5284101;28;20023;-77
2022/03/24 03:18:36;;;;;;;29.42;15.82;;;;;;;1.66;93.68;102073.25;5280077;28;20097;-77
2022/03/24 03:21:06;;;;;;;29.05;15.45;;;;;;;1.85;90.46;102074.59;5283277;28;20054;-78
2022/03/24 03:23:38;;;;;;;29.48;15.75;;;;;;;1.85;92.15;102076.31;5281556;28;20027;-77
2022/03/24 03:26:08;;;;;;;30.13;15.15;;;;;;;1.88;91.84;102079.84;5278330;28;20154;-78
2022/03/24 03:28:39;;;;;;;33.00;16.40;;;;;;;2.12;90.90;102075.22;5283430;28;20106;-78
2022/03/24 03:31:09;;;;;;;31.55;16.65;;;;;;;2.10;89.16;102078.59;5282897;28;20024;-77
2022/03/24 03:33:39;;;;;;;33.75;16.75;;;;;;;2.14;88.22;102073.53;5280694;28;20389;-78
2022/03/24 03:36:10;;;;;;;35.17;15.57;;;;;;;1.88;89.16;102084.09;5283163;28;20035;-78
2022/03/24 03:38:40;;;;;;;28.30;15.15;;;;;;;1.98;89.79;102075.75;5284989;28;20015;-78
2022/03/24 03:41:11;;;;;;;28.75;14.27;;;;;;;2.12;88.97;102076.91;5268739;28;20020;-78
2022/03/24 03:43:43;;;;;;;29.00;14.90;;;;;;;1.84;88.66;102072.00;5267217;28;20118;-77
2022/03/24 03:46:13;;;;;;;31.35;16.42;;;;;;;1.63;90.98;102083.47;5287756;28;20057;-77
2022/03/24 03:48:45;;;;;;;30.15;15.52;;;;;;;1.54;90.86;102084.13;5287920;28;20501;-78
2022/03/24 03:51:15;;;;;;;28.25;15.52;;;;;;;1.43;92.49;102080.41;5268878;28;20063;-78
2022/03/24 03:53:46;;;;;;;33.28;16.83;;;;;;;1.56;92.75;102074.72;5285420;28;20114;-77
2022/03/24 03:56:16;;;;;;;32.15;16.52;;;;;;;1.67;90.37;102077.56;5287432;28;20489;-77
2022/03/24 03:58:47;;;;;;;35.78;15.82;;;;;;;1.73;88.95;102070.84;5287506;28;20046;-77
2022/03/24 04:01:17;;;;;;;35.85;16.05;;;;;;;1.57;90.82;102065.31;5287453;28;20034;-77
2022/03/24 04:03:48;;;;;;;32.03;16.05;;;;;;;1.34;91.71;102071.56;5284876;28;20401;-77
2022/03/24 04:06:18;;;;;;;32.17;16.17;;;;;;;1.13;93.29;102077.06;5268810;28;20042;-76
2022/03/24 04:08:48;;;;;;;30.73;16.67;;;;;;;0.96;94.87;102077.44;5286989;28;20031;-77
2022/03/24 04:11:19;;;;;;;33.22;16.65;;;;;;;1.18;95.71;102082.31;5286796;28;20572;-77
2022/03/24 04:13:49;;;;;;;34.63;16.83;;;;;;;1.10;95.31;102081.25;5286352;28;20059;-77
2022/03/24 04:16:20;;;;;;;34.88;16.27;;;;;;;1.31;94.21;102080.13;5269195;28;20042;-78
2022/03/24 04:18:50;;;;;;;34.20;15.93;;;;;;;1.62;92.81;102072.31;5286913;28;20023;-77
2022/03/24 04:21:20;;;;;;;29.38;15.82;;;;;;;1.77;89.55;102075.25;5286879;28;20391;-78
2022/03/24 04:23:51;;;;;;;38.15;16.42;;;;;;;1.74;87.58;102072.59;5284119;28;20027;-77
2022/03/24 04:26:22;;;;;;;28.65;14.82;;;;;;;1.66;88.13;102068.97;5286988;28;20024;-77
2022/03/24 04:28:52;;;;;;;32.30;16.65;;;;;;;1.21;90.45;102075.53;5286902;28;20150;-78
2022/03/24 04:31:22;;;;;;;33.13;16.25;;;;;;;1.27;93.04;102078.28;5286705;28;20031;-78
2022/03/24 04:33:53;;;;;;;32.83;17.08;;;;;;;1.25;94.28;102077.34;5287001;28;20031;-77
2022/03/24 04:36:23;;;;;;;32.60;16.48;;;;;;;1.21;93.50;102074.69;5287400;28;20035;-77
2022/03/24 04:38:53;;;;;;;33.80;16.90;;;;;;;1.22;94.89;102085.00;5287178;28;20058;-77
2022/03/24 04:41:24;;;;;;;30.55;15.98;;;;;;;1.58;91.49;102083.34;5285998;28;20039;-77
2022/03/24 04:43:55;;;;;;;31.50;16.48;;;;;;;1.50;90.94;102074.59;5267833;28;20093;-77
2022/03/24 04:46:25;;;;;;;35.70;16.70;;;;;;;1.35;90.54;102076.78;5286686;28;20036;-77
2022/03/24 04:48:55;;;;;;;34.65;16.70;;;;;;;1.24;91.83;102075.63;5286416;28;20401;-78
2022/03/24 04:51:25;;;;;;;35.78;17.00;;;;;;;1.21;93.86;102080.69;5285906;28;20191;-77
2022/03/24 04:53:56;;;;;;;32.50;16.42;;;;;;;1.56;90.91;102074.72;5286436;28;20031;-77
2022/03/24 04:56:26;;;;;;;34.03;16.73;;;;;;;1.42;90.65;102075.22;5286361;28;20032;-76
2022/03/24 04:58:56;;;;;;;34.42;16.63;;;;;;;1.36;92.25;102072.47;5285407;28;20472;-76
2022/03/24 05:01:26;;;;;;;38.30;18.73;;;;;;;1.31;93.48;102076.66;5282854;28;20098;-77
2022/03/24 05:03:57;;;;;;;34.75;18.13;;;;;;;1.36;92.51;102073.38;5286868;28;20031;-78
2022/03/24 05:06:27;;;;;;;39.33;17.63;;;;;;;1.47;92.33;102069.38;5286290;28;20417;-77
2022/03/24 05:08:57;;;;;;;42.33;18.67;;;;;;;1.39;90.93;102080.31;5285316;28;20097;-78
2022/03/24 05:11:28;;;;;;;31.88;16.02;;;;;;;1.26;92.64;102076.53;5286702;28;20027;-77
2022/03/24 05:13:58;;;;;;;33.65;17.10;;;;;;;0.90;93.71;102073.00;5287025;28;20027;-78
2022/03/24 05:16:28;;;;;;;34.40;17.23;;;;;;;0.69;95.41;102081.84;5285744;28;20129;-77
2022/03/24 05:18:58;;;;;;;32.38;17.13;;;;;;;0.99;94.88;102073.25;5286394;28;20024;-77
2022/03/24 05:21:31;;;;;;;33.75;16.70;;;;;;;0.96;95.29;102080.91;5286191;28;20031;-77
2022/03/24 05:24:02;;;;;;;31.02;16.33;;;;;;;0.87;94.92;102085.78;5286056;28;20027;-77
2022/03/24 05:26:33;;;;;;;34.50;17.02;;;;;;;1.04;95.08;102081.97;5285105;28;20064;-77
2022/03/24 05:29:03;;;;;;;33.38;16.80;;;;;;;1.29;92.01;102074.06;5285644;28;20020;-77
2022/03/24 05:31:33;;;;;;;33.60;15.80;;;;;;;1.62;90.90;102072.31;5267135;28;20106;-78
2022/03/24 05:34:04;;;;;;;32.88;16.80;;;;;;;1.39;89.21;102073.44;5267253;28;20035;-77
2022/03/24 05:36:35;;;;;;;33.15;16.67;;;;;;;1.33;91.86;102078.44;5285153;28;20024;-78
2022/03/24 05:39:05;;;;;;;30.23;15.15;;;;;;;1.44;92.14;102073.56;5285319;28;20054;-77
2022/03/24 05:41:36;;;;;;;34.58;16.92;;;;;;;1.42;91.70;102076.09;5285791;28;20038;-77
2022/03/24 05:44:07;;;;;;;36.05;17.65;;;;;;;1.50;92.06;102079.75;5267916;28;20016;-77
2022/03/24 05:46:47;;;;;;;33.95;16.20;;;;;;;1.53;91.45;102073.78;5285819;28;20031;-77
2022/03/24 05:49:19;;;;;;;31.63;16.02;;;;;;;1.67;91.92;102083.59;5285470;28;20491;-77
2022/03/24 05:51:50;;;;;;;31.30;17.08;;;;;;;1.80;89.26;102080.50;5266779;28;20024;-77
2022/03/24 05:54:20;;;;;;;33.33;16.55;;;;;;;1.46;90.68;102079.63;5281526;28;20459;-77
2022/03/24 05:56:51;;;;;;;33.42;16.80;;;;;;;1.32;92.43;102088.69;5284948;28;20047;-77
2022/03/24 05:59:22;;;;;;;31.75;16.48;;;;;;;1.40;94.55;102090.63;5284913;28;20031;-78
2022/03/24 06:01:52;;;;;;;34.60;17.23;;;;;;;1.17;94.38;102088.28;5284294;28;20051;-77
2022/03/24 06:04:23;;;;;;;31.98;16.27;;;;;;;1.59;94.60;102092.81;5285603;28;20023;-77
2022/03/24 06:06:56;;;;;;;32.42;16.35;;;;;;;1.82;92.52;102094.28;5266642;28;20027;-77
2022/03/24 06:09:27;;;;;;;29.65;15.88;;;;;;;2.02;91.08;102083.56;5267060;28;20019;-77
2022/03/24 06:11:58;;;;;;;34.08;16.45;;;;;;;2.36;89.42;102080.91;5266559;28;20092;-78
2022/03/24 06:14:30;;;;;;;31.65;15.82;;;;;;;2.42;87.10;102086.22;5284769;28;20020;-77
2022/03/24 06:17:00;;;;;;;38.33;15.98;;;;;;;2.59;89.05;102094.28;5284920;28;20493;-77
2022/03/24 06:19:31;;;;;;;31.67;16.15;;;;;;;2.63;89.14;102090.94;5285379;28;20039;-77
2022/03/24 06:22:03;;;;;;;30.20;15.95;;;;;;;2.47;89.93;102097.50;5284453;28;20031;-77
2022/03/24 06:24:34;;;;;;;33.38;16.20;;;;;;;2.16;90.81;102091.66;5281130;28;20550;-77
2022/03/24 06:27:05;;;;;;;29.52;15.63;;;;;;;2.46;93.10;102092.28;5283635;28;20666;-77
2022/03/24 06:29:35;;;;;;;33.45;17.73;;;;;;;2.31;91.27;102092.00;5280607;28;20115;-78
2022/03/24 06:32:06;;;;;;;36.85;17.83;;;;;;;2.34;92.77;102092.03;5266483;28;20106;-78
2022/03/24 06:34:36;;;;;;;40.17;17.83;;;;;;;2.16;93.37;102091.66;5284806;28;20034;-77
2022/03/24 06:37:07;;;;;;;37.45;18.98;;;;;;;2.12;93.88;102089.81;5284741;28;20042;-77
2022/03/24 06:39:37;;;;;;;34.15;18.40;;;;;;;2.23;93.99;102090.94;5284692;28;20023;-77
2022/03/24 06:42:07;;;;;;;33.70;17.70;;;;;;;2.48;93.42;102101.81;5266303;28;20024;-78
2022/03/24 06:44:38;;;;;;;34.78;18.10;;;;;;;2.95;91.56;102100.19;5284834;28;20107;-77
2022/03/24 06:47:10;;;;;;;34.08;18.23;;;;;;;3.11;90.64;102097.06;5284827;28;20821;-78
2022/03/24 06:49:40;;;;;;;34.97;18.30;;;;;;;3.34;88.94;102106.13;5284313;28;20643;-77
2022/03/24 06:52:10;;;;;;;35.95;18.10;;;;;;;3.49;90.69;102101.19;5283844;28;20023;-78
2022/03/24 06:54:40;;;;;;;30.75;17.42;;;;;;;3.80;90.33;102089.69;5280046;28;20036;-78
2022/03/24 06:57:14;;;;;;;31.90;18.23;;;;;;;3.83;89.22;102100.09;5283320;28;20023;-78
2022/03/24 06:59:44;;;;;;;36.70;19.30;;;;;;;3.90;89.14;102091.56;5283579;28;20035;-78
2022/03/24 07:02:15;;;;;;;35.22;18.52;;;;;;;3.72;91.05;102099.03;5282593;28;20122;-78
2022/03/24 07:04:47;;;;;;;32.55;18.30;;;;;;;4.13;89.75;102095.38;5283527;28;20095;-77
2022/03/24 07:07:17;;;;;;;36.88;18.45;;;;;;;4.15;86.73;102098.84;5284159;28;20031;-78
2022/03/24 07:09:48;;;;;;;33.92;18.05;;;;;;;4.35;87.02;102106.91;5267382;28;20508;-78
2022/03/24 07:12:21;;;;;;;37.40;18.73;;;;;;;4.89;84.38;102100.72;5285390;28;20061;-78
2022/03/24 07:14:51;;;;;;;40.97;18.23;;;;;;;5.39;80.19;102086.56;5267910;28;20028;-77
2022/03/24 07:17:22;;;;;;;37.55;18.80;;;;;;;5.51;79.58;102097.03;5285782;28;20050;-77
2022/03/24 07:19:52;;;;;;;34.00;18.48;;;;;;;5.50;80.89;102093.59;5285977;28;20046;-77
2022/03/24 07:22:23;;;;;;;33.80;18.15;;;;;;;7.84;75.58;102079.94;5283638;28;20074;-77
2022/03/24 07:24:53;;;;;;;33.33;17.80;;;;;;;10.20;68.93;102080.47;5284248;28;20024;-77
2022/03/24 07:27:23;;;;;;;34.37;17.33;;;;;;;11.42;62.90;102072.81;5267931;28;20390;-78
2022/03/24 07:29:53;;;;;;;26.93;16.30;;;;;;;13.87;58.32;102068.69;5269268;28;20376;-77
2022/03/24 07:32:24;;;;;;;27.90;16.10;;;;;;;15.64;54.10;102056.50;5268370;28;20273;-78
2022/03/24 07:34:55;;;;;;;33.13;17.23;;;;;;;16.06;50.46;102055.94;5286803;28;20705;-78
2022/03/24 07:37:26;;;;;;;27.90;17.38;;;;;;;16.09;50.00;102061.13;5268470;28;20024;-78
2022/03/24 07:39:57;;;;;;;27.42;17.40;;;;;;;13.37;57.69;102075.19;5268814;28;20087;-78
2022/03/24 07:42:28;;;;;;;27.23;17.38;;;;;;;16.55;52.56;102066.53;5286979;28;20106;-78
2022/03/24 07:44:58;;;;;;;29.00;16.95;;;;;;;16.33;49.32;102062.03;5268631;28;20023;-78
2022/03/24 07:47:28;;;;;;;26.53;17.20;;;;;;;15.27;51.63;102067.34;5268826;28;20027;-78
2022/03/24 07:49:59;;;;;;;26.80;17.93;;;;;;;13.59;55.82;102075.56;5287530;28;20273;-78
2022/03/24 07:52:30;;;;;;;24.53;16.43;;;;;;;15.93;53.26;102070.47;5283832;28;20298;-78
2022/03/24 07:55:07;;;;;;;28.30;16.83;;;;;;;17.18;52.18;102062.31;5285669;28;20297;-78
2022/03/24 07:57:37;;;;;;;24.00;17.23;;;;;;;15.96;53.80;102066.84;5282766;28;20036;-78
2022/03/24 08:00:08;;;;;;;25.03;17.30;;;;;;;18.46;46.62;102054.31;5286449;28;20035;-79
2022/03/24 08:02:43;;;;;;;24.77;16.25;;;;;;;18.10;50.05;102059.41;5285684;28;20353;-79
2022/03/24 08:05:13;;;;;;;24.77;16.93;;;;;;;15.65;52.14;102061.75;5286490;28;20020;-78
2022/03/24 08:07:43;;;;;;;28.50;17.85;;;;;;;15.94;51.20;102072.19;5286665;28;20078;-79
2022/03/24 08:10:13;;;;;;;27.20;17.13;;;;;;;18.49;46.74;102060.34;5284057;28;20061;-79
2022/03/24 08:12:44;;;;;;;28.37;17.73;;;;;;;17.26;48.63;102062.03;5286265;28;20265;-79
2022/03/24 08:15:14;;;;;;;26.13;17.15;;;;;;;20.06;45.29;102063.34;5287653;28;20301;-78
2022/03/24 08:17:44;;;;;;;25.95;16.65;;;;;;;20.07;44.87;102058.91;5289359;28;20024;-78
2022/03/24 08:20:15;;;;;;;28.27;17.10;;;;;;;21.41;43.04;102053.31;5290014;28;20039;-79
2022/03/24 08:22:46;;;;;;;23.70;16.73;;;;;;;21.91;42.38;102056.63;5271196;28;20023;-78
2022/03/24 08:25:17;;;;;;;25.85;17.80;;;;;;;18.66;44.89;102071.03;5274033;28;20105;-79
2022/03/24 08:27:47;;;;;;;24.98;17.35;;;;;;;16.57;48.38;102083.16;5275873;28;20034;-78
2022/03/24 08:30:18;;;;;;;26.33;17.45;;;;;;;17.07;47.10;102076.88;5294021;28;20031;-79
2022/03/24 08:32:48;;;;;;;23.10;17.00;;;;;;;18.86;44.61;102074.53;5292974;28;20024;-79
2022/03/24 08:35:19;;;;;;;23.77;17.17;;;;;;;19.67;44.02;102064.47;5293469;28;20031;-78
2022/03/24 08:37:49;;;;;;;24.00;17.58;;;;;;;17.85;45.82;102074.56;5293189;28;20027;-78
2022/03/24 08:40:19;;;;;;;25.52;18.08;;;;;;;19.74;42.06;102071.16;5290237;28;20407;-78
2022/03/24 08:42:50;;;;;;;26.43;17.83;;;;;;;18.28;44.69;102076.31;5293208;28;20027;-78
2022/03/24 08:45:20;;;;;;;26.85;18.80;;;;;;;16.86;46.17;102089.13;5292828;28;20312;-78
2022/03/24 08:47:53;;;;;;;25.03;17.00;;;;;;;20.39;43.21;102066.94;5274054;28;20035;-78
2022/03/24 08:50:23;;;;;;;24.00;17.30;;;;;;;19.19;43.73;102073.00;5307594;22;20401;-79
2022/03/24 08:52:55;;;;;;;26.02;18.10;;;;;;;19.80;43.34;102079.69;5277211;28;20024;-80
2022/03/24 08:55:25;;;;;;;24.02;17.27;;;;;;;20.08;44.46;102074.75;5284575;28;20039;-79
2022/03/24 08:57:56;;;;;;;27.50;19.30;;;;;;;17.91;45.93;102076.13;5279352;28;20465;-79
2022/03/24 09:00:26;;;;;;;29.65;19.77;;;;;;;17.95;46.38;102083.00;5286318;28;20042;-79
2022/03/24 09:02:56;;;;;;;28.08;17.83;;;;;;;19.58;44.62;102072.88;5287796;28;20484;-79
2022/03/24 09:05:27;;;;;;;26.30;17.90;;;;;;;21.00;41.88;102063.59;5287818;28;20031;-79
2022/03/24 09:07:57;;;;;;;29.33;18.90;;;;;;;18.13;45.24;102076.94;5287603;28;20304;-79
2022/03/24 09:10:27;;;;;;;29.05;19.75;;;;;;;16.70;47.68;102079.16;5288044;28;20025;-78
2022/03/24 09:12:58;;;;;;;27.65;19.15;;;;;;;18.07;46.58;102079.84;5289639;28;20492;-78
2022/03/24 09:15:29;;;;;;;28.05;19.73;;;;;;;17.65;47.54;102077.19;5288159;28;20055;-78
2022/03/24 09:17:59;;;;;;;29.33;19.25;;;;;;;18.20;46.82;102076.59;5288752;27;20822;-79
2022/03/24 09:20:30;;;;;;;29.07;19.03;;;;;;;18.91;45.71;102072.50;5289078;28;20073;-79
2022/03/24 09:23:00;;;;;;;30.30;19.02;;;;;;;18.30;46.55;102080.63;5278484;27;20270;-78
2022/03/24 09:25:30;;;;;;;29.07;19.27;;;;;;;18.17;46.45;102070.59;5282036;28;20031;-78
2022/03/24 09:28:01;;;;;;;28.65;19.35;;;;;;;18.21;46.29;102069.53;5279253;28;20363;-78
2022/03/24 09:30:31;;;;;;;29.85;19.52;;;;;;;16.80;48.50;102077.94;5288523;28;20031;-78
2022/03/24 09:33:02;;;;;;;32.33;19.93;;;;;;;16.59;48.53;102078.69;5289425;28;20019;-77
2022/03/24 09:35:34;;;;;;;29.67;19.15;;;;;;;16.10;49.11;102089.25;5287776;28;20293;-78
2022/03/24 09:38:05;;;;;;;38.15;20.88;;;;;;;15.81;49.50;102076.16;5286288;28;20130;-77
2022/03/24 09:40:36;;;;;;;32.78;19.30;;;;;;;15.53;50.88;102087.66;5280018;28;20023;-78
2022/03/24 09:43:07;;;;;;;32.05;20.23;;;;;;;15.64;50.22;102080.22;5287482;28;20084;-77
2022/03/24 09:45:38;;;;;;;31.25;18.55;;;;;;;15.48;49.29;102077.25;5287516;28;20020;-78
2022/03/24 09:48:10;;;;;;;32.83;19.10;;;;;;;15.15;49.97;102078.25;5287254;28;20681;-77
2022/03/24 09:50:44;;;;;;;34.33;19.10;;;;;;;14.89;52.29;102086.09;5286546;28;20096;-77
2022/03/24 09:53:17;;;;;;;34.10;19.07;;;;;;;14.79;51.88;102082.88;5282500;28;20138;-77
2022/03/24 09:55:49;;;;;;;34.53;18.90;;;;;;;14.81;50.66;102075.81;5276915;28;20031;-77
2022/03/24 09:58:24;;;;;;;30.90;16.83;;;;;;;14.94;49.38;102081.53;5266320;28;20035;-77
2022/03/24 10:00:54;;;;;;;31.83;17.90;;;;;;;15.03;50.79;102078.59;5285598;28;20039;-77
2022/03/24 10:03:26;;;;;;;33.92;19.33;;;;;;;15.38;50.85;102070.53;5286190;28;20028;-77
2022/03/24 10:05:57;;;;;;;34.13;18.38;;;;;;;14.58;50.92;102079.06;5286013;28;20019;-77
2022/03/24 10:08:29;;;;;;;31.00;17.33;;;;;;;14.36;51.60;102080.59;5283957;28;20034;-77
2022/03/24 10:11:01;;;;;;;32.08;17.85;;;;;;;14.59;50.32;102079.97;5285740;28;20483;-77
2022/03/24 10:13:45;;;;;;;26.70;15.85;;;;;;;15.09;49.58;102060.00;5286103;28;20465;-77
2022/03/24 10:16:34;;;;;;;30.35;17.48;;;;;;;14.60;50.04;102076.41;5279888;28;20039;-77
2022/03/24 10:19:08;;;;;;;30.67;16.75;;;;;;;14.83;50.47;102067.81;5286172;28;20061;-77
2022/03/24 10:21:42;;;;;;;28.08;16.00;;;;;;;15.03;49.94;102070.72;5285306;28;20680;-77
2022/03/24 10:24:15;;;;;;;27.83;15.85;;;;;;;14.52;49.14;102073.13;5272631;28;20032;-77
2022/03/24 10:26:50;;;;;;;29.70;16.25;;;;;;;14.79;48.85;102067.94;5278565;28;20129;-77
2022/03/24 10:29:24;;;;;;;28.85;16.15;;;;;;;15.04;48.86;102063.69;5280999;28;20511;-77
2022/03/24 10:31:57;;;;;;;28.27;16.08;;;;;;;14.95;48.95;102070.09;5284460;28;20102;-77
2022/03/24 10:34:31;;;;;;;30.15;16.40;;;;;;;14.94;49.40;102073.63;5286060;28;20603;-77
2022/03/24 10:37:03;;;;;;;28.55;16.33;;;;;;;14.82;49.23;102063.44;5286205;28;20594;-80
2022/03/24 10:39:35;;;;;;;30.40;16.80;;;;;;;15.13;48.75;102069.53;5272935;28;20049;-77
2022/03/24 10:42:17;;;;;;;27.52;15.52;;;;;;;14.49;49.19;102063.56;5270672;28;20029;-77
2022/03/24 10:45:11;;;;;;;26.88;15.90;;;;;;;14.75;49.80;102062.81;5284161;28;20055;-77
2022/03/24 10:47:53;;;;;;;30.67;16.45;;;;;;;14.79;49.82;102067.09;5278287;28;20046;-77
2022/03/24 10:50:25;;;;;;;31.35;16.48;;;;;;;14.66;48.94;102063.06;5283548;28;20492;-77
2022/03/24 10:53:10;;;;;;;28.20;15.57;;;;;;;14.40;49.76;102058.53;5276296;28;20023;-78
2022/03/24 10:55:43;;;;;;;27.92;15.52;;;;;;;14.35;49.56;102054.31;5278977;28;20019;-80
2022/03/24 10:58:20;;;;;;;25.60;14.63;;;;;;;14.26;49.97;102050.16;5282864;28;20032;-80
2022/03/24 11:00:52;;;;;;;27.38;14.85;;;;;;;14.46;49.19;102050.47;5286021;28;20477;-77
2022/03/24 11:03:23;;;;;;;27.42;15.32;;;;;;;14.69;49.19;102050.69;5285335;28;20039;-77
2022/03/24 11:06:14;;;;;;;25.80;15.75;;;;;;;14.50;48.67;102040.72;5285860;28;20658;-77
2022/03/24 11:08:51;;;;;;;26.65;14.65;;;;;;;14.77;49.14;102042.59;5278375;28;20043;-77
2022/03/24 11:11:22;;;;;;;30.70;14.60;;;;;;;14.69;49.12;102047.19;5285106;28;20106;-77
2022/03/24 11:13:55;;;;;;;27.08;15.07;;;;;;;14.92;50.03;102037.72;5285184;28;20062;-78
2022/03/24 11:16:36;;;;;;;27.92;14.77;;;;;;;15.02;48.44;102034.75;5286899;28;20637;-78
2022/03/24 11:19:17;;;;;;;25.05;13.93;;;;;;;15.14;48.74;102034.38;5279699;28;20035;-77
2022/03/24 11:21:48;;;;;;;24.50;14.38;;;;;;;15.34;48.21;102032.00;5285308;28;20034;-77
2022/03/24 11:24:19;;;;;;;29.07;15.13;;;;;;;15.38;49.46;102031.00;5271866;28;20024;-77
2022/03/24 11:26:49;;;;;;;26.60;14.55;;;;;;;15.39;47.47;102030.09;5277491;28;20528;-77
2022/03/24 11:29:20;;;;;;;26.83;15.63;;;;;;;15.50;49.58;102027.97;5280244;28;20039;-77
2022/03/24 11:31:50;;;;;;;25.73;14.57;;;;;;;15.32;49.06;102027.72;5284617;28;20027;-77